Private Wetterstation Wechselburg
Wetterdaten: Woche 09.05.11 - 15.05.11 (KW19)
Datum Zeit Temp. +2m Bodentemp. Temp.+5cm Temp. Wind Windchill X Diff Temp. Feuchte +2m Feuchte +5cm Sonnenschein Luftdruck Regen Wind Richtung Sonnenschein UV Taupunkt Windchill Windben
09.05.2011 00:00 12,5 C 17,3 C 10,6 C 11,3 C 8,9 C 0,0 C 63 % 71 % 0 % 1026,3 hPa 0,0 l/m 0,2 km/h (0 Bft) N 0,00 h 0,0 UV-I 5,7 C 8,9 C 0,6 km/h (0 Bft)
09.05.2011 01:00 11,9 C 17,0 C 10,0 C 11,0 C 9,0 C 0,0 C 65 % 73 % 0 % 1026,4 hPa 0,0 l/m 0,7 km/h (0 Bft) N-NW 0,00 h 0,0 UV-I 5,4 C 9,0 C 1,0 km/h (0 Bft)
09.05.2011 02:00 11,0 C 16,9 C 8,9 C 9,8 C 7,4 C 0,0 C 69 % 77 % 0 % 1026,7 hPa 0,0 l/m 0,1 km/h (0 Bft) N 0,00 h 0,0 UV-I 5,4 C 7,4 C 0,2 km/h (0 Bft)
09.05.2011 03:00 9,8 C 16,7 C 8,0 C 8,5 C 5,8 C 0,0 C 72 % 80 % 0 % 1026,8 hPa 0,0 l/m 0,1 km/h (0 Bft) N 0,00 h 0,0 UV-I 5,0 C 5,8 C 0,0 km/h (0 Bft)
09.05.2011 04:00 9,1 C 16,5 C 7,4 C 7,8 C 5,3 C 0,0 C 74 % 81 % 0 % 1027,4 hPa 0,0 l/m 0,1 km/h (0 Bft) N 0,00 h 0,0 UV-I 4,7 C 5,3 C 0,2 km/h (0 Bft)
09.05.2011 05:00 8,5 C 16,4 C 6,8 C 7,1 C 4,2 C 0,0 C 75 % 82 % 0 % 1027,8 hPa 0,0 l/m 0,0 km/h (0 Bft) N 0,00 h 0,0 UV-I 4,3 C 4,2 C 0,5 km/h (0 Bft)
09.05.2011 06:00 10,6 C 16,1 C 6,9 C 8,8 C 5,1 C 0,0 C 71 % 84 % 0 % 1028,2 hPa 0,0 l/m 0,1 km/h (0 Bft) N 0,00 h 0,0 UV-I 5,6 C 5,1 C 0,2 km/h (0 Bft)
09.05.2011 07:00 16,2 C 15,7 C 8,8 C 18,5 C 17,9 C 2,6 C 56 % 82 % 57 % 1028,7 hPa 0,0 l/m 0,1 km/h (0 Bft) N 0,42 h 0,1 UV-I 7,4 C 17,9 C 0,1 km/h (0 Bft)
09.05.2011 08:00 17,8 C 15,6 C 11,1 C 22,5 C 22,5 C 4,7 C 54 % 78 % 93 % 1028,9 hPa 0,0 l/m 0,9 km/h (0 Bft) N-NO 0,83 h 0,4 UV-I 8,2 C 22,5 C 2,2 km/h (1 Bft)
09.05.2011 09:00 17,0 C 15,5 C 14,0 C 20,8 C 20,8 C 3,8 C 56 % 70 % 67 % 1028,8 hPa 0,0 l/m 2,5 km/h (1 Bft) O-NO 0,58 h 0,8 UV-I 8,2 C 20,8 C 4,0 km/h (1 Bft)
09.05.2011 10:00 18,6 C 15,5 C 16,7 C 21,7 C 21,7 C 3,1 C 49 % 57 % 79 % 1028,6 hPa 0,0 l/m 4,7 km/h (1 Bft) O-NO 0,67 h 0,8 UV-I 7,7 C 21,7 C 7,5 km/h (2 Bft)
09.05.2011 11:00 19,9 C 15,5 C 18,6 C 21,5 C 21,5 C 1,6 C 44 % 49 % 42 % 1028,6 hPa 0,0 l/m 6,6 km/h (2 Bft) O-NO 0,25 h 1,1 UV-I 7,2 C 21,5 C 9,2 km/h (2 Bft)
09.05.2011 12:00 21,0 C 15,5 C 20,1 C 23,6 C 23,6 C 2,6 C 37 % 41 % 69 % 1028,2 hPa 0,0 l/m 7,5 km/h (2 Bft) O-NO 0,00 h 2,9 UV-I 5,8 C 23,6 C 11,6 km/h (2 Bft)
09.05.2011 13:00 22,0 C 15,8 C 21,3 C 24,7 C 24,7 C 2,7 C 34 % 37 % 71 % 1027,7 hPa 0,0 l/m 6,8 km/h (2 Bft) O-NO 0,00 h 3,3 UV-I 5,5 C 24,7 C 9,4 km/h (2 Bft)
09.05.2011 14:00 22,8 C 16,3 C 22,9 C 25,8 C 25,8 C 3,0 C 33 % 35 % 79 % 1027,3 hPa 0,0 l/m 6,0 km/h (2 Bft) O-NO 0,08 h 3,0 UV-I 5,8 C 25,8 C 7,9 km/h (2 Bft)
09.05.2011 15:00 23,6 C 16,6 C 24,8 C 26,2 C 26,2 C 2,6 C 30 % 29 % 68 % 1027,0 hPa 0,0 l/m 7,2 km/h (2 Bft) O-NO 0,00 h 2,1 UV-I 4,8 C 26,2 C 10,0 km/h (2 Bft)
09.05.2011 16:00 23,9 C 16,6 C 24,3 C 26,3 C 26,3 C 2,4 C 30 % 30 % 62 % 1026,9 hPa 0,0 l/m 6,5 km/h (2 Bft) O-NO 0,00 h 1,1 UV-I 5,0 C 26,3 C 8,7 km/h (2 Bft)
09.05.2011 17:00 24,4 C 16,6 C 23,6 C 26,8 C 26,8 C 2,4 C 24 % 26 % 64 % 1026,9 hPa 0,0 l/m 4,2 km/h (1 Bft) O-NO 0,00 h 0,5 UV-I 2,3 C 26,8 C 6,5 km/h (2 Bft)
09.05.2011 18:00 24,2 C 16,6 C 22,5 C 25,8 C 25,8 C 1,7 C 23 % 27 % 44 % 1026,8 hPa 0,0 l/m 4,1 km/h (1 Bft) O-NO 0,00 h 0,2 UV-I 1,9 C 25,8 C 6,0 km/h (2 Bft)
09.05.2011 19:00 23,4 C 17,7 C 21,9 C 24,2 C 24,2 C 0,8 C 25 % 30 % 20 % 1026,9 hPa 0,0 l/m 2,1 km/h (1 Bft) O-NO 0,00 h 0,0 UV-I 2,5 C 24,2 C 3,6 km/h (1 Bft)
09.05.2011 20:00 20,7 C 18,3 C 18,8 C 19,9 C 18,1 C 0,0 C 29 % 35 % 0 % 1027,1 hPa 0,0 l/m 1,0 km/h (0 Bft) NO 0,00 h 0,0 UV-I 2,2 C 18,1 C 1,2 km/h (1 Bft)
09.05.2011 21:00 18,0 C 18,3 C 15,8 C 16,6 C 13,9 C 0,0 C 38 % 45 % 0 % 1027,3 hPa 0,0 l/m 0,2 km/h (0 Bft) N 0,00 h 0,0 UV-I 3,3 C 13,9 C 0,1 km/h (0 Bft)
09.05.2011 22:00 15,9 C 18,3 C 13,2 C 14,1 C 10,5 C 0,0 C 46 % 55 % 0 % 1027,5 hPa 0,0 l/m 0,1 km/h (0 Bft) N 0,00 h 0,0 UV-I 4,3 C 10,5 C 0,2 km/h (0 Bft)
09.05.2011 23:00 14,0 C 18,2 C 11,6 C 12,2 C 8,6 C 0,0 C 53 % 62 % 0 % 1027,5 hPa 0,0 l/m 0,0 km/h (0 Bft) N 0,00 h 0,0 UV-I 4,6 C 8,6 C 0,0 km/h (0 Bft)
10.05.2011 00:00 12,4 C 17,7 C 10,2 C 10,7 C 7,4 C 0,0 C 59 % 67 % 0 % 1027,6 hPa 0,0 l/m 0,0 km/h (0 Bft) N 0,00 h 0,0 UV-I 4,6 C 7,4 C 0,0 km/h (0 Bft)
10.05.2011 01:00 11,3 C 17,6 C 9,1 C 9,6 C 6,3 C 0,0 C 63 % 72 % 0 % 1027,3 hPa 0,0 l/m 0,1 km/h (0 Bft) N 0,00 h 0,0 UV-I 4,5 C 6,3 C 0,3 km/h (0 Bft)
10.05.2011 02:00 10,2 C 17,3 C 8,2 C 8,7 C 5,5 C 0,0 C 67 % 75 % 0 % 1027,2 hPa 0,0 l/m 0,1 km/h (0 Bft) N 0,00 h 0,0 UV-I 4,3 C 5,5 C 0,0 km/h (0 Bft)
10.05.2011 03:00 9,3 C 17,1 C 7,5 C 7,8 C 4,8 C 0,0 C 70 % 77 % 0 % 1027,3 hPa 0,0 l/m 0,0 km/h (0 Bft) N 0,00 h 0,0 UV-I 4,1 C 4,8 C 0,0 km/h (0 Bft)
10.05.2011 04:00 8,6 C 17,0 C 6,9 C 7,2 C 4,4 C 0,0 C 72 % 80 % 0 % 1027,3 hPa 0,0 l/m 0,2 km/h (0 Bft) N 0,00 h 0,0 UV-I 3,9 C 4,4 C 0,3 km/h (0 Bft)
10.05.2011 05:00 8,0 C 17,0 C 6,3 C 6,6 C 3,8 C 0,0 C 75 % 82 % 0 % 1027,6 hPa 0,0 l/m 0,1 km/h (0 Bft) N 0,00 h 0,0 UV-I 3,8 C 3,8 C 0,4 km/h (0 Bft)
10.05.2011 06:00 9,7 C 17,0 C 6,6 C 8,1 C 5,1 C 0,0 C 72 % 83 % 0 % 1027,7 hPa 0,0 l/m 0,2 km/h (0 Bft) N 0,00 h 0,0 UV-I 4,8 C 5,1 C 0,2 km/h (0 Bft)
10.05.2011 07:00 13,7 C 16,3 C 8,2 C 15,2 C 14,5 C 1,9 C 61 % 82 % 46 % 1028,0 hPa 0,0 l/m 0,3 km/h (0 Bft) SW 0,25 h 0,1 UV-I 6,3 C 14,5 C 0,6 km/h (0 Bft)
10.05.2011 08:00 16,4 C 16,1 C 10,5 C 22,1 C 22,1 C 5,6 C 57 % 79 % 99 % 1028,2 hPa 0,0 l/m 0,5 km/h (0 Bft) SW 0,92 h 0,5 UV-I 7,8 C 22,1 C 0,9 km/h (0 Bft)
10.05.2011 09:00 17,3 C 16,1 C 14,2 C 24,5 C 24,5 C 7,2 C 57 % 72 % 96 % 1027,8 hPa 0,0 l/m 1,1 km/h (0 Bft) NO 0,83 h 0,9 UV-I 8,6 C 24,5 C 3,3 km/h (1 Bft)
10.05.2011 10:00 20,3 C 16,0 C 18,6 C 25,2 C 25,2 C 4,9 C 44 % 51 % 93 % 1027,7 hPa 0,0 l/m 3,3 km/h (1 Bft) NO 0,75 h 0,9 UV-I 7,8 C 25,2 C 5,0 km/h (1 Bft)
10.05.2011 11:00 22,6 C 15,8 C 20,8 C 26,8 C 26,8 C 4,1 C 38 % 44 % 89 % 1027,2 hPa 0,0 l/m 2,4 km/h (1 Bft) NO 0,75 h 1,2 UV-I 7,5 C 26,8 C 3,7 km/h (1 Bft)
10.05.2011 12:00 23,8 C 15,8 C 22,5 C 28,5 C 28,5 C 4,7 C 33 % 38 % 100 % 1027,0 hPa 0,0 l/m 4,0 km/h (1 Bft) O-NO 1,00 h 3,0 UV-I 6,5 C 28,5 C 6,7 km/h (2 Bft)
10.05.2011 13:00 24,7 C 15,8 C 23,9 C 28,3 C 28,3 C 3,6 C 31 % 33 % 92 % 1026,6 hPa 0,0 l/m 4,8 km/h (1 Bft) O-NO 0,58 h 3,4 UV-I 6,4 C 28,3 C 6,9 km/h (2 Bft)
10.05.2011 14:00 25,5 C 15,8 C 25,6 C 29,9 C 29,9 C 4,3 C 29 % 31 % 99 % 1026,4 hPa 0,0 l/m 3,3 km/h (1 Bft) O-NO 1,00 h 3,0 UV-I 6,3 C 29,9 C 3,7 km/h (1 Bft)
10.05.2011 15:00 26,3 C 15,8 C 27,5 C 31,7 C 31,7 C 5,5 C 28 % 29 % 100 % 1026,0 hPa 0,0 l/m 1,4 km/h (1 Bft) S 1,00 h 2,3 UV-I 6,4 C 31,7 C 2,2 km/h (1 Bft)
10.05.2011 16:00 26,6 C 15,8 C 27,0 C 30,9 C 30,9 C 4,3 C 29 % 30 % 98 % 1025,7 hPa 0,0 l/m 2,2 km/h (1 Bft) O-NO 1,00 h 1,2 UV-I 7,0 C 30,9 C 3,6 km/h (1 Bft)
10.05.2011 17:00 26,2 C 16,5 C 25,2 C 29,0 C 29,0 C 2,8 C 30 % 34 % 71 % 1025,2 hPa 0,0 l/m 1,9 km/h (1 Bft) NO 0,33 h 0,6 UV-I 7,3 C 29,0 C 2,9 km/h (1 Bft)
10.05.2011 18:00 25,7 C 18,4 C 24,4 C 27,5 C 27,5 C 1,9 C 33 % 36 % 49 % 1024,8 hPa 0,0 l/m 4,3 km/h (1 Bft) O-NO 0,08 h 0,2 UV-I 8,0 C 27,5 C 5,3 km/h (1 Bft)
10.05.2011 19:00 24,9 C 18,4 C 24,0 C 25,9 C 25,9 C 1,1 C 36 % 39 % 28 % 1024,3 hPa 0,0 l/m 3,9 km/h (1 Bft) O-NO 0,00 h 0,1 UV-I 8,9 C 25,9 C 4,3 km/h (1 Bft)
10.05.2011 20:00 22,1 C 18,4 C 20,9 C 21,6 C 20,6 C 0,0 C 43 % 47 % 0 % 1024,3 hPa 0,0 l/m 2,6 km/h (1 Bft) NO 0,00 h 0,0 UV-I 8,9 C 20,6 C 2,8 km/h (1 Bft)
10.05.2011 21:00 20,1 C 18,4 C 17,9 C 18,8 C 16,1 C 0,0 C 52 % 58 % 0 % 1024,4 hPa 0,0 l/m 0,1 km/h (0 Bft) N 0,00 h 0,0 UV-I 9,8 C 16,1 C 0,0 km/h (0 Bft)
10.05.2011 22:00 18,1 C 18,4 C 15,7 C 16,6 C 13,7 C 0,0 C 59 % 67 % 0 % 1024,4 hPa 0,0 l/m 0,1 km/h (0 Bft) N 0,00 h 0,0 UV-I 9,9 C 13,7 C 0,2 km/h (0 Bft)
10.05.2011 23:00 16,5 C 18,8 C 14,3 C 15,1 C 12,3 C 0,0 C 63 % 71 % 0 % 1024,3 hPa 0,0 l/m 0,0 km/h (0 Bft) N 0,00 h 0,0 UV-I 9,4 C 12,3 C 0,0 km/h (0 Bft)
11.05.2011 00:00 15,3 C 18,6 C 13,3 C 14,0 C 11,4 C 0,0 C 65 % 73 % 0 % 1024,3 hPa 0,0 l/m 0,0 km/h (0 Bft) N 0,00 h 0,0 UV-I 8,8 C 11,4 C 0,0 km/h (0 Bft)
11.05.2011 01:00 14,3 C 18,5 C 12,3 C 13,0 C 10,4 C 0,0 C 69 % 77 % 0 % 1023,9 hPa 0,0 l/m 0,0 km/h (0 Bft) N 0,00 h 0,0 UV-I 8,6 C 10,4 C 0,0 km/h (0 Bft)
11.05.2011 02:00 13,3 C 18,4 C 11,4 C 12,0 C 9,5 C 0,0 C 72 % 80 % 0 % 1023,6 hPa 0,0 l/m 0,1 km/h (0 Bft) N 0,00 h 0,0 UV-I 8,3 C 9,5 C 0,0 km/h (0 Bft)
11.05.2011 03:00 12,7 C 18,2 C 10,9 C 11,3 C 8,6 C 0,0 C 74 % 81 % 0 % 1023,4 hPa 0,0 l/m 0,0 km/h (0 Bft) N 0,00 h 0,0 UV-I 8,2 C 8,6 C 0,0 km/h (0 Bft)
11.05.2011 04:00 12,1 C 18,0 C 10,4 C 10,9 C 8,4 C 0,0 C 75 % 83 % 0 % 1022,9 hPa 0,0 l/m 0,0 km/h (0 Bft) N 0,00 h 0,0 UV-I 7,9 C 8,4 C 0,0 km/h (0 Bft)
11.05.2011 05:00 11,7 C 17,9 C 10,2 C 10,6 C 8,4 C 0,0 C 77 % 84 % 0 % 1022,4 hPa 0,0 l/m 0,0 km/h (0 Bft) N 0,00 h 0,0 UV-I 7,7 C 8,4 C 0,0 km/h (0 Bft)
11.05.2011 06:00 11,8 C 17,9 C 10,2 C 10,9 C 9,1 C 0,0 C 77 % 84 % 0 % 1022,1 hPa 0,0 l/m 0,0 km/h (0 Bft) N 0,00 h 0,0 UV-I 7,9 C 9,1 C 0,0 km/h (0 Bft)
11.05.2011 07:00 13,5 C 17,9 C 10,7 C 15,0 C 14,5 C 1,8 C 74 % 85 % 46 % 1022,2 hPa 0,0 l/m 0,2 km/h (0 Bft) N 0,33 h 0,1 UV-I 8,9 C 14,5 C 0,1 km/h (0 Bft)
11.05.2011 08:00 17,9 C 17,9 C 12,4 C 24,2 C 24,2 C 6,4 C 62 % 82 % 100 % 1022,3 hPa 0,0 l/m 0,1 km/h (0 Bft) N 1,00 h 0,5 UV-I 10,4 C 24,2 C 0,5 km/h (0 Bft)
11.05.2011 09:00 18,7 C 17,9 C 15,5 C 26,2 C 26,2 C 7,5 C 59 % 75 % 100 % 1022,2 hPa 0,0 l/m 0,9 km/h (0 Bft) W-SW 1,00 h 1,0 UV-I 10,6 C 26,2 C 1,9 km/h (1 Bft)
11.05.2011 10:00 20,4 C 17,9 C 18,4 C 25,0 C 25,0 C 4,6 C 55 % 65 % 94 % 1021,8 hPa 0,0 l/m 2,1 km/h (1 Bft) S-SO 0,67 h 1,1 UV-I 11,1 C 25,0 C 4,6 km/h (1 Bft)
11.05.2011 11:00 22,0 C 17,9 C 20,2 C 25,6 C 25,6 C 3,7 C 52 % 60 % 84 % 1021,7 hPa 0,0 l/m 3,7 km/h (1 Bft) W-SW 0,67 h 1,3 UV-I 11,6 C 25,6 C 5,1 km/h (1 Bft)
11.05.2011 12:00 23,6 C 17,9 C 22,8 C 28,4 C 28,4 C 4,7 C 46 % 52 % 100 % 1021,3 hPa 0,0 l/m 5,0 km/h (1 Bft) S 1,00 h 3,0 UV-I 11,4 C 28,4 C 7,1 km/h (2 Bft)
11.05.2011 13:00 24,9 C 17,6 C 24,7 C 29,1 C 29,1 C 4,2 C 42 % 46 % 100 % 1020,8 hPa 0,0 l/m 5,5 km/h (1 Bft) SW 1,00 h 3,6 UV-I 11,2 C 29,1 C 6,6 km/h (2 Bft)
11.05.2011 14:00 25,7 C 17,7 C 28,2 C 29,7 C 29,7 C 4,1 C 40 % 40 % 99 % 1020,7 hPa 0,0 l/m 5,3 km/h (1 Bft) SW 1,00 h 3,2 UV-I 11,0 C 29,7 C 6,2 km/h (2 Bft)
11.05.2011 15:00 26,5 C 18,0 C 30,4 C 30,1 C 30,1 C 3,6 C 35 % 31 % 94 % 1020,0 hPa 0,0 l/m 5,1 km/h (1 Bft) S 1,00 h 2,2 UV-I 9,6 C 30,1 C 6,3 km/h (2 Bft)
11.05.2011 16:00 25,9 C 18,5 C 27,0 C 27,7 C 27,7 C 1,7 C 36 % 36 % 45 % 1019,4 hPa 0,0 l/m 4,3 km/h (1 Bft) SW 0,25 h 0,9 UV-I 9,5 C 27,7 C 6,4 km/h (2 Bft)
11.05.2011 17:00 24,2 C 18,8 C 23,6 C 24,5 C 24,2 C 0,4 C 44 % 46 % 10 % 1019,6 hPa 0,0 l/m 6,8 km/h (2 Bft) S 0,00 h 0,3 UV-I 11,2 C 24,2 C 9,4 km/h (2 Bft)
11.05.2011 18:00 21,8 C 19,5 C 20,1 C 21,1 C 19,6 C 0,0 C 54 % 62 % 0 % 1019,4 hPa 0,0 l/m 2,7 km/h (1 Bft) SO 0,00 h 0,1 UV-I 12,2 C 19,6 C 3,2 km/h (1 Bft)
11.05.2011 19:00 20,3 C 19,6 C 18,5 C 19,7 C 18,4 C 0,0 C 65 % 73 % 0 % 1018,7 hPa 0,0 l/m 0,1 km/h (0 Bft) N 0,00 h 0,0 UV-I 13,6 C 18,4 C 0,0 km/h (0 Bft)
11.05.2011 20:00 19,2 C 19,6 C 17,5 C 18,4 C 16,6 C 0,0 C 70 % 79 % 0 % 1018,9 hPa 0,0 l/m 0,8 km/h (0 Bft) NO 0,00 h 0,0 UV-I 13,7 C 16,6 C 1,0 km/h (0 Bft)
11.05.2011 21:00 18,2 C 19,6 C 16,8 C 17,5 C 15,9 C 0,0 C 74 % 81 % 0 % 1018,9 hPa 0,0 l/m 0,4 km/h (0 Bft) N 0,00 h 0,0 UV-I 13,5 C 15,9 C 0,3 km/h (0 Bft)
11.05.2011 22:00 17,5 C 19,6 C 16,1 C 16,7 C 15,3 C 0,0 C 77 % 84 % 0 % 1019,2 hPa 0,0 l/m 0,1 km/h (0 Bft) N 0,00 h 0,0 UV-I 13,5 C 15,3 C 0,2 km/h (0 Bft)
11.05.2011 23:00 16,7 C 19,7 C 15,3 C 15,8 C 14,0 C 0,0 C 80 % 86 % 0 % 1018,6 hPa 0,0 l/m 0,0 km/h (0 Bft) N 0,00 h 0,0 UV-I 13,2 C 14,0 C 0,1 km/h (0 Bft)
12.05.2011 00:00 15,8 C 19,6 C 14,3 C 14,8 C 12,8 C 0,0 C 81 % 87 % 0 % 1018,5 hPa 0,0 l/m 0,1 km/h (0 Bft) N 0,00 h 0,0 UV-I 12,6 C 12,8 C 0,1 km/h (0 Bft)
12.05.2011 01:00 14,9 C 19,6 C 13,4 C 13,9 C 12,0 C 0,0 C 82 % 88 % 0 % 1018,1 hPa 0,0 l/m 0,1 km/h (0 Bft) N 0,00 h 0,0 UV-I 11,8 C 12,0 C 0,4 km/h (0 Bft)
12.05.2011 02:00 14,2 C 19,6 C 12,7 C 13,3 C 11,3 C 0,0 C 82 % 88 % 0 % 1017,9 hPa 0,0 l/m 0,2 km/h (0 Bft) N 0,00 h 0,0 UV-I 11,3 C 11,3 C 0,3 km/h (0 Bft)
12.05.2011 03:00 13,5 C 19,6 C 12,0 C 12,6 C 10,7 C 0,0 C 82 % 89 % 0 % 1017,4 hPa 0,0 l/m 0,0 km/h (0 Bft) N 0,00 h 0,0 UV-I 10,6 C 10,7 C 0,0 km/h (0 Bft)
12.05.2011 04:00 13,1 C 19,4 C 11,6 C 12,1 C 10,2 C 0,0 C 83 % 89 % 0 % 1017,1 hPa 0,0 l/m 0,2 km/h (0 Bft) N 0,00 h 0,0 UV-I 10,2 C 10,2 C 0,4 km/h (0 Bft)
12.05.2011 05:00 12,4 C 18,9 C 11,1 C 11,5 C 9,6 C 0,0 C 83 % 89 % 0 % 1016,8 hPa 0,0 l/m 0,0 km/h (0 Bft) N 0,00 h 0,0 UV-I 9,6 C 9,6 C 0,0 km/h (0 Bft)
12.05.2011 06:00 12,8 C 18,8 C 11,0 C 11,9 C 10,2 C 0,0 C 83 % 89 % 0 % 1017,1 hPa 0,0 l/m 0,1 km/h (0 Bft) N 0,00 h 0,0 UV-I 9,9 C 10,2 C 0,0 km/h (0 Bft)
12.05.2011 07:00 14,1 C 18,5 C 11,0 C 13,8 C 13,1 C 0,0 C 81 % 90 % 0 % 1016,6 hPa 0,0 l/m 0,5 km/h (0 Bft) S 0,00 h 0,1 UV-I 11,0 C 13,1 C 0,6 km/h (0 Bft)
12.05.2011 08:00 15,5 C 18,5 C 11,0 C 16,8 C 16,8 C 1,3 C 80 % 90 % 34 % 1016,2 hPa 0,0 l/m 1,0 km/h (0 Bft) SW 0,08 h 0,4 UV-I 12,0 C 16,8 C 1,7 km/h (1 Bft)
12.05.2011 09:00 17,1 C 18,5 C 11,0 C 21,6 C 21,6 C 4,4 C 79 % 90 % 99 % 1016,0 hPa 0,0 l/m 1,0 km/h (0 Bft) S 1,00 h 0,9 UV-I 13,5 C 21,6 C 1,0 km/h (0 Bft)
12.05.2011 10:00 18,9 C 18,5 C 11,0 C 24,2 C 24,2 C 5,3 C 75 % 90 % 100 % 1015,6 hPa 0,0 l/m 0,7 km/h (0 Bft) S-SW 1,00 h 1,3 UV-I 14,3 C 24,2 C 1,1 km/h (0 Bft)
12.05.2011 11:00 20,9 C 18,5 C 11,0 C 25,9 C 25,9 C 5,0 C 66 % 90 % 97 % 1015,1 hPa 0,0 l/m 1,7 km/h (1 Bft) S 0,92 h 1,7 UV-I 14,3 C 25,9 C 2,3 km/h (1 Bft)
12.05.2011 12:00 22,5 C 18,5 C 11,0 C 28,7 C 28,7 C 6,2 C 56 % 90 % 100 % 1014,7 hPa 0,0 l/m 2,2 km/h (1 Bft) NW 1,00 h 2,6 UV-I 13,3 C 28,7 C 2,9 km/h (1 Bft)
12.05.2011 13:00 22,8 C 18,5 C 11,0 C 27,1 C 27,1 C 4,3 C 51 % 90 % 96 % 1014,3 hPa 0,0 l/m 2,5 km/h (1 Bft) S 0,92 h 1,9 UV-I 12,3 C 27,1 C 3,1 km/h (1 Bft)
12.05.2011 14:00 21,1 C 18,5 C 11,0 C 21,2 C 20,9 C 0,3 C 58 % 90 % 7 % 1014,1 hPa 0,0 l/m 3,0 km/h (1 Bft) S-SO 0,00 h 0,6 UV-I 12,5 C 20,9 C 4,8 km/h (1 Bft)
12.05.2011 15:00 20,9 C 18,5 C 11,0 C 22,7 C 22,7 C 1,8 C 59 % 90 % 47 % 1013,8 hPa 0,0 l/m 1,4 km/h (1 Bft) S 0,00 h 1,0 UV-I 12,5 C 22,7 C 2,7 km/h (1 Bft)
12.05.2011 16:00 20,8 C 18,5 C 11,8 C 22,4 C 22,4 C 1,6 C 60 % 88 % 41 % 1013,6 hPa 0,0 l/m 1,4 km/h (1 Bft) S 0,00 h 0,7 UV-I 12,7 C 22,4 C 2,9 km/h (1 Bft)
12.05.2011 17:00 20,9 C 18,5 C 19,8 C 22,2 C 22,2 C 1,3 C 61 % 66 % 34 % 1013,2 hPa 0,0 l/m 1,8 km/h (1 Bft) SO 0,08 h 0,4 UV-I 13,0 C 22,2 C 2,1 km/h (1 Bft)
12.05.2011 18:00 21,9 C 18,5 C 20,5 C 24,6 C 24,6 C 2,8 C 57 % 62 % 73 % 1012,9 hPa 0,0 l/m 2,1 km/h (1 Bft) S-SO 0,25 h 0,2 UV-I 12,9 C 24,6 C 3,1 km/h (1 Bft)
12.05.2011 19:00 20,2 C 18,5 C 18,8 C 19,8 C 18,8 C 0,0 C 58 % 64 % 0 % 1012,7 hPa 0,0 l/m 1,9 km/h (1 Bft) S 0,00 h 0,0 UV-I 11,7 C 18,8 C 1,8 km/h (1 Bft)
12.05.2011 20:00 17,1 C 19,0 C 14,8 C 16,2 C 14,3 C 0,0 C 73 % 84 % 0 % 1013,6 hPa 7,6 l/m 4,1 km/h (1 Bft) NO 0,00 h 0,0 UV-I 12,2 C 14,3 C 5,3 km/h (1 Bft)
12.05.2011 21:00 15,6 C 19,2 C 13,5 C 14,7 C 13,0 C 0,0 C 81 % 93 % 0 % 1014,3 hPa 0,0 l/m 0,5 km/h (0 Bft) S 0,00 h 0,0 UV-I 12,4 C 13,0 C 1,0 km/h (0 Bft)
12.05.2011 22:00 15,2 C 19,0 C 13,1 C 14,4 C 12,8 C 0,0 C 82 % 93 % 0 % 1015,0 hPa 0,0 l/m 0,5 km/h (0 Bft) N 0,00 h 0,0 UV-I 12,2 C 12,8 C 0,5 km/h (0 Bft)
12.05.2011 23:00 14,9 C 18,9 C 13,1 C 14,1 C 12,7 C 0,0 C 84 % 94 % 0 % 1015,3 hPa 0,0 l/m 0,4 km/h (0 Bft) N 0,00 h 0,0 UV-I 12,2 C 12,7 C 1,4 km/h (1 Bft)
13.05.2011 00:00 14,3 C 18,6 C 12,1 C 13,5 C 12,0 C 0,0 C 80 % 93 % 0 % 1015,8 hPa 0,0 l/m 3,8 km/h (1 Bft) S 0,00 h 0,0 UV-I 10,9 C 12,0 C 5,6 km/h (1 Bft)
13.05.2011 01:00 13,0 C 18,4 C 10,5 C 12,1 C 10,2 C 0,0 C 77 % 92 % 0 % 1016,5 hPa 0,0 l/m 2,6 km/h (1 Bft) SW 0,00 h 0,0 UV-I 9,1 C 10,2 C 3,9 km/h (1 Bft)
13.05.2011 02:00 12,5 C 18,2 C 10,3 C 11,7 C 10,0 C 0,0 C 79 % 93 % 0 % 1017,4 hPa 0,0 l/m 2,1 km/h (1 Bft) SW 0,00 h 0,0 UV-I 9,1 C 10,0 C 2,4 km/h (1 Bft)
13.05.2011 03:00 11,7 C 18,1 C 9,7 C 10,6 C 8,3 C 0,0 C 81 % 93 % 0 % 1018,2 hPa 0,0 l/m 0,2 km/h (0 Bft) N 0,00 h 0,0 UV-I 8,5 C 8,3 C 0,2 km/h (0 Bft)
13.05.2011 04:00 11,2 C 18,0 C 9,1 C 10,0 C 7,5 C 0,0 C 82 % 94 % 0 % 1018,8 hPa 0,7 l/m 0,6 km/h (0 Bft) W-SW 0,00 h 0,0 UV-I 8,3 C 7,5 C 1,1 km/h (0 Bft)
13.05.2011 05:00 10,6 C 17,8 C 8,7 C 9,5 C 7,4 C 0,0 C 83 % 94 % 0 % 1019,2 hPa 0,0 l/m 0,2 km/h (0 Bft) S 0,00 h 0,0 UV-I 7,7 C 7,4 C 0,5 km/h (0 Bft)
13.05.2011 06:00 11,7 C 17,4 C 9,2 C 10,6 C 8,4 C 0,0 C 81 % 94 % 0 % 1019,9 hPa 0,0 l/m 0,8 km/h (0 Bft) SW 0,00 h 0,0 UV-I 8,5 C 8,4 C 1,1 km/h (1 Bft)
13.05.2011 07:00 12,6 C 17,1 C 9,9 C 12,1 C 11,2 C 0,0 C 78 % 94 % 1 % 1020,6 hPa 0,0 l/m 1,9 km/h (1 Bft) S 0,00 h 0,1 UV-I 8,8 C 11,2 C 2,0 km/h (1 Bft)
13.05.2011 08:00 13,9 C 16,9 C 10,5 C 14,7 C 14,6 C 0,9 C 75 % 93 % 23 % 1021,0 hPa 0,0 l/m 4,4 km/h (1 Bft) SW 0,00 h 0,4 UV-I 9,5 C 14,6 C 5,4 km/h (1 Bft)
13.05.2011 09:00 13,6 C 16,6 C 11,5 C 15,2 C 15,2 C 1,5 C 74 % 87 % 40 % 1021,6 hPa 0,0 l/m 5,4 km/h (1 Bft) S 0,17 h 0,7 UV-I 9,1 C 15,2 C 6,1 km/h (2 Bft)
13.05.2011 10:00 14,3 C 16,5 C 12,4 C 16,8 C 16,8 C 2,5 C 67 % 79 % 65 % 1021,9 hPa 0,0 l/m 5,3 km/h (1 Bft) S 0,25 h 1,1 UV-I 8,3 C 16,8 C 6,0 km/h (2 Bft)
13.05.2011 11:00 15,4 C 16,4 C 13,5 C 18,0 C 18,0 C 2,6 C 60 % 72 % 69 % 1022,0 hPa 0,0 l/m 6,0 km/h (2 Bft) SO 0,08 h 1,4 UV-I 7,8 C 18,0 C 8,3 km/h (2 Bft)
13.05.2011 12:00 16,5 C 16,4 C 15,0 C 19,1 C 19,1 C 2,6 C 57 % 68 % 69 % 1022,3 hPa 0,0 l/m 7,1 km/h (2 Bft) S 0,00 h 2,7 UV-I 8,0 C 19,1 C 8,9 km/h (2 Bft)
13.05.2011 13:00 17,1 C 16,4 C 15,7 C 19,6 C 19,6 C 2,5 C 54 % 66 % 65 % 1022,0 hPa 0,0 l/m 6,1 km/h (2 Bft) S 0,08 h 2,9 UV-I 7,7 C 19,6 C 8,3 km/h (2 Bft)
13.05.2011 14:00 18,5 C 16,5 C 17,0 C 21,8 C 21,8 C 3,3 C 50 % 59 % 85 % 1021,7 hPa 0,0 l/m 6,3 km/h (2 Bft) SW 0,58 h 3,0 UV-I 7,8 C 21,8 C 8,3 km/h (2 Bft)
13.05.2011 15:00 19,4 C 16,6 C 20,1 C 22,9 C 22,9 C 3,6 C 46 % 52 % 85 % 1021,1 hPa 0,0 l/m 4,1 km/h (1 Bft) W-SW 0,58 h 2,0 UV-I 7,5 C 22,9 C 4,8 km/h (1 Bft)
13.05.2011 16:00 19,9 C 17,0 C 20,8 C 23,0 C 23,0 C 3,1 C 44 % 48 % 79 % 1020,7 hPa 0,0 l/m 3,6 km/h (1 Bft) SW 0,42 h 1,1 UV-I 7,4 C 23,0 C 4,6 km/h (1 Bft)
13.05.2011 17:00 20,4 C 17,3 C 20,0 C 22,8 C 22,8 C 2,4 C 43 % 49 % 63 % 1020,7 hPa 0,0 l/m 2,5 km/h (1 Bft) SW 0,17 h 0,6 UV-I 7,4 C 22,8 C 2,9 km/h (1 Bft)
13.05.2011 18:00 20,7 C 17,4 C 19,4 C 22,9 C 22,9 C 2,2 C 42 % 51 % 59 % 1020,4 hPa 0,0 l/m 2,3 km/h (1 Bft) SW 0,00 h 0,2 UV-I 7,2 C 22,9 C 3,0 km/h (1 Bft)
13.05.2011 19:00 19,4 C 17,6 C 17,5 C 19,8 C 19,6 C 0,5 C 45 % 55 % 14 % 1020,3 hPa 0,0 l/m 0,3 km/h (0 Bft) N 0,00 h 0,1 UV-I 7,3 C 19,6 C 0,5 km/h (0 Bft)
13.05.2011 20:00 16,9 C 17,7 C 15,0 C 15,9 C 13,8 C 0,0 C 57 % 66 % 0 % 1020,2 hPa 0,0 l/m 0,0 km/h (0 Bft) N 0,00 h 0,0 UV-I 8,3 C 13,8 C 0,0 km/h (0 Bft)
13.05.2011 21:00 14,9 C 17,7 C 12,9 C 13,5 C 10,7 C 0,0 C 67 % 77 % 0 % 1020,1 hPa 0,0 l/m 0,0 km/h (0 Bft) N 0,00 h 0,0 UV-I 8,9 C 10,7 C 0,2 km/h (0 Bft)
13.05.2011 22:00 13,5 C 17,8 C 11,5 C 11,9 C 8,9 C 0,0 C 73 % 82 % 0 % 1019,9 hPa 0,0 l/m 0,1 km/h (0 Bft) N 0,00 h 0,0 UV-I 8,6 C 8,9 C 0,0 km/h (0 Bft)
13.05.2011 23:00 12,2 C 17,7 C 10,4 C 10,7 C 7,8 C 0,0 C 76 % 85 % 0 % 1019,6 hPa 0,0 l/m 0,1 km/h (0 Bft) N 0,00 h 0,0 UV-I 8,1 C 7,8 C 0,1 km/h (0 Bft)
14.05.2011 00:00 11,2 C 17,6 C 9,5 C 9,8 C 7,0 C 0,0 C 78 % 87 % 0 % 1018,9 hPa 0,0 l/m 0,0 km/h (0 Bft) N 0,00 h 0,0 UV-I 7,5 C 7,0 C 0,0 km/h (0 Bft)
14.05.2011 01:00 10,5 C 17,5 C 8,8 C 9,1 C 6,4 C 0,0 C 79 % 87 % 0 % 1018,7 hPa 0,0 l/m 0,1 km/h (0 Bft) N 0,00 h 0,0 UV-I 6,9 C 6,4 C 0,0 km/h (0 Bft)
14.05.2011 02:00 10,0 C 17,3 C 8,6 C 8,9 C 6,7 C 0,0 C 79 % 88 % 0 % 1018,6 hPa 0,0 l/m 0,2 km/h (0 Bft) N 0,00 h 0,0 UV-I 6,6 C 6,7 C 0,5 km/h (0 Bft)
14.05.2011 03:00 10,3 C 17,0 C 9,0 C 9,5 C 7,8 C 0,0 C 79 % 88 % 0 % 1018,1 hPa 0,0 l/m 0,0 km/h (0 Bft) N 0,00 h 0,0 UV-I 6,9 C 7,8 C 0,0 km/h (0 Bft)
14.05.2011 04:00 10,6 C 16,8 C 9,5 C 9,9 C 8,5 C 0,0 C 81 % 88 % 0 % 1017,8 hPa 0,0 l/m 0,0 km/h (0 Bft) N 0,00 h 0,0 UV-I 7,4 C 8,5 C 0,0 km/h (0 Bft)
14.05.2011 05:00 10,6 C 16,7 C 9,6 C 9,9 C 8,5 C 0,0 C 81 % 88 % 0 % 1017,4 hPa 0,0 l/m 0,0 km/h (0 Bft) N 0,00 h 0,0 UV-I 7,5 C 8,5 C 0,0 km/h (0 Bft)
14.05.2011 06:00 10,8 C 16,6 C 9,5 C 10,1 C 8,6 C 0,0 C 81 % 89 % 0 % 1017,0 hPa 0,0 l/m 0,0 km/h (0 Bft) N 0,00 h 0,0 UV-I 7,7 C 8,6 C 0,0 km/h (0 Bft)
14.05.2011 07:00 12,6 C 16,3 C 10,5 C 14,1 C 13,9 C 1,5 C 74 % 87 % 40 % 1016,9 hPa 0,0 l/m 0,6 km/h (0 Bft) SW 0,00 h 0,1 UV-I 8,2 C 13,9 C 1,2 km/h (1 Bft)
14.05.2011 08:00 15,5 C 16,2 C 11,6 C 20,0 C 20,0 C 4,5 C 64 % 84 % 89 % 1016,6 hPa 0,0 l/m 0,9 km/h (0 Bft) NO 0,67 h 0,5 UV-I 8,6 C 20,0 C 2,0 km/h (1 Bft)
14.05.2011 09:00 16,2 C 16,2 C 13,2 C 20,9 C 20,9 C 4,7 C 58 % 77 % 99 % 1016,2 hPa 0,0 l/m 0,5 km/h (0 Bft) N 1,00 h 0,7 UV-I 8,1 C 20,9 C 1,4 km/h (1 Bft)
14.05.2011 10:00 17,8 C 16,2 C 14,6 C 23,1 C 23,1 C 5,3 C 55 % 72 % 99 % 1015,4 hPa 0,0 l/m 1,6 km/h (1 Bft) NO 1,00 h 1,3 UV-I 8,8 C 23,1 C 4,8 km/h (1 Bft)
14.05.2011 11:00 19,6 C 16,3 C 16,2 C 24,8 C 24,8 C 5,2 C 47 % 65 % 100 % 1014,7 hPa 0,0 l/m 1,9 km/h (1 Bft) S 1,00 h 1,5 UV-I 8,0 C 24,8 C 2,9 km/h (1 Bft)
14.05.2011 12:00 20,6 C 16,5 C 16,2 C 25,6 C 25,6 C 4,9 C 41 % 65 % 100 % 1014,2 hPa 0,0 l/m 2,7 km/h (1 Bft) S-SO 1,00 h 3,1 UV-I 7,0 C 25,6 C 5,4 km/h (1 Bft)
14.05.2011 13:00 21,3 C 16,7 C 16,2 C 25,7 C 25,7 C 4,3 C 42 % 65 % 99 % 1013,7 hPa 0,0 l/m 3,2 km/h (1 Bft) S-SW 1,00 h 2,9 UV-I 7,8 C 25,7 C 2,8 km/h (1 Bft)
14.05.2011 14:00 21,6 C 16,9 C 16,2 C 25,6 C 25,6 C 3,9 C 42 % 65 % 92 % 1013,0 hPa 0,0 l/m 3,3 km/h (1 Bft) S 0,75 h 2,2 UV-I 8,1 C 25,6 C 4,5 km/h (1 Bft)
14.05.2011 15:00 21,7 C 17,1 C 16,7 C 24,7 C 24,7 C 3,0 C 43 % 64 % 77 % 1012,1 hPa 0,0 l/m 1,7 km/h (1 Bft) O-NO 0,42 h 1,3 UV-I 8,4 C 24,7 C 1,5 km/h (1 Bft)
14.05.2011 16:00 22,8 C 17,4 C 23,5 C 27,0 C 27,0 C 4,2 C 42 % 46 % 96 % 1011,4 hPa 0,0 l/m 2,7 km/h (1 Bft) W-SW 0,92 h 1,2 UV-I 9,4 C 27,0 C 4,0 km/h (1 Bft)
14.05.2011 17:00 22,4 C 17,6 C 22,4 C 24,0 C 24,0 C 1,6 C 43 % 47 % 43 % 1011,0 hPa 0,0 l/m 3,4 km/h (1 Bft) S 0,25 h 0,4 UV-I 9,3 C 24,0 C 5,1 km/h (1 Bft)
14.05.2011 18:00 20,4 C 17,8 C 19,7 C 20,2 C 19,8 C 0,0 C 52 % 56 % 0 % 1011,3 hPa 0,0 l/m 1,8 km/h (1 Bft) NW 0,00 h 0,2 UV-I 10,1 C 19,8 C 2,8 km/h (1 Bft)
14.05.2011 19:00 18,8 C 17,9 C 17,3 C 18,3 C 17,3 C 0,0 C 58 % 66 % 0 % 1011,4 hPa 0,0 l/m 1,1 km/h (1 Bft) SO 0,00 h 0,0 UV-I 10,4 C 17,3 C 2,2 km/h (1 Bft)
14.05.2011 20:00 17,4 C 18,1 C 16,1 C 16,8 C 15,5 C 0,0 C 64 % 70 % 0 % 1012,3 hPa 0,0 l/m 3,1 km/h (1 Bft) S-SO 0,00 h 0,0 UV-I 10,4 C 15,5 C 4,1 km/h (1 Bft)
14.05.2011 21:00 16,1 C 18,1 C 15,0 C 15,4 C 13,9 C 0,0 C 64 % 71 % 0 % 1013,6 hPa 0,0 l/m 3,2 km/h (1 Bft) W-SW 0,00 h 0,0 UV-I 9,3 C 13,9 C 4,9 km/h (1 Bft)
14.05.2011 22:00 14,6 C 18,4 C 12,3 C 13,6 C 11,4 C 0,0 C 74 % 86 % 0 % 1014,6 hPa 1,4 l/m 2,9 km/h (1 Bft) SW 0,00 h 0,0 UV-I 10,0 C 11,4 C 4,0 km/h (1 Bft)
14.05.2011 23:00 13,4 C 18,5 C 11,3 C 12,5 C 10,9 C 0,0 C 81 % 92 % 0 % 1015,3 hPa 1,4 l/m 1,0 km/h (0 Bft) S 0,00 h 0,0 UV-I 10,2 C 10,9 C 0,9 km/h (0 Bft)
15.05.2011 00:00 12,9 C 18,4 C 11,3 C 12,1 C 10,7 C 0,0 C 84 % 93 % 0 % 1015,3 hPa 0,7 l/m 0,5 km/h (0 Bft) S 0,00 h 0,0 UV-I 10,2 C 10,7 C 1,0 km/h (0 Bft)
15.05.2011 01:00 12,1 C 18,1 C 10,5 C 11,5 C 10,1 C 0,0 C 81 % 93 % 0 % 1015,5 hPa 0,7 l/m 1,9 km/h (1 Bft) NO 0,00 h 0,0 UV-I 9,0 C 10,1 C 2,5 km/h (1 Bft)
15.05.2011 02:00 11,3 C 17,9 C 9,9 C 10,6 C 9,3 C 0,0 C 84 % 93 % 0 % 1015,7 hPa 0,7 l/m 0,0 km/h (0 Bft) N 0,00 h 0,0 UV-I 8,7 C 9,3 C 0,0 km/h (0 Bft)
15.05.2011 03:00 11,1 C 17,8 C 9,7 C 10,5 C 9,3 C 0,0 C 85 % 94 % 0 % 1016,0 hPa 2,1 l/m 0,5 km/h (0 Bft) O-SO 0,00 h 0,0 UV-I 8,7 C 9,3 C 1,1 km/h (1 Bft)
15.05.2011 04:00 10,9 C 17,6 C 9,6 C 10,2 C 8,8 C 0,0 C 86 % 94 % 0 % 1015,8 hPa 0,0 l/m 0,3 km/h (0 Bft) N 0,00 h 0,0 UV-I 8,7 C 8,8 C 0,3 km/h (0 Bft)
15.05.2011 05:00 10,8 C 17,3 C 9,4 C 10,1 C 8,6 C 0,0 C 86 % 94 % 0 % 1016,4 hPa 0,0 l/m 0,4 km/h (0 Bft) SW 0,00 h 0,0 UV-I 8,5 C 8,6 C 0,8 km/h (0 Bft)
15.05.2011 06:00 10,7 C 17,1 C 9,1 C 10,0 C 8,6 C 0,0 C 85 % 94 % 0 % 1017,0 hPa 0,0 l/m 2,6 km/h (1 Bft) S 0,00 h 0,0 UV-I 8,3 C 8,6 C 3,8 km/h (1 Bft)
15.05.2011 07:00 10,7 C 16,8 C 8,5 C 10,3 C 9,4 C 0,0 C 82 % 94 % 0 % 1017,8 hPa 0,0 l/m 3,7 km/h (1 Bft) W-SW 0,00 h 0,1 UV-I 7,8 C 9,4 C 4,4 km/h (1 Bft)
15.05.2011 08:00 11,9 C 16,5 C 8,7 C 13,5 C 13,4 C 1,7 C 76 % 93 % 46 % 1017,8 hPa 0,0 l/m 3,2 km/h (1 Bft) SW 0,08 h 0,4 UV-I 7,8 C 13,4 C 4,4 km/h (1 Bft)
15.05.2011 09:00 12,2 C 16,3 C 9,4 C 14,5 C 14,5 C 2,3 C 73 % 90 % 60 % 1018,3 hPa 0,0 l/m 3,9 km/h (1 Bft) S 0,25 h 0,7 UV-I 7,5 C 14,5 C 6,2 km/h (2 Bft)
15.05.2011 10:00 12,5 C 16,1 C 10,2 C 13,5 C 13,5 C 1,0 C 70 % 88 % 27 % 1018,2 hPa 0,0 l/m 4,2 km/h (1 Bft) S-SW 0,00 h 0,7 UV-I 7,2 C 13,5 C 6,1 km/h (2 Bft)
15.05.2011 11:00 12,7 C 16,0 C 10,3 C 13,3 C 13,3 C 0,6 C 70 % 86 % 16 % 1018,2 hPa 0,0 l/m 5,5 km/h (1 Bft) SW 0,00 h 0,9 UV-I 7,3 C 13,3 C 6,4 km/h (2 Bft)
15.05.2011 12:00 13,6 C 15,9 C 10,3 C 15,5 C 15,4 C 1,9 C 66 % 86 % 51 % 1018,3 hPa 0,0 l/m 6,1 km/h (2 Bft) S-SW 0,17 h 1,5 UV-I 7,3 C 15,4 C 8,5 km/h (2 Bft)
15.05.2011 13:00 13,5 C 15,9 C 10,3 C 14,4 C 14,2 C 1,0 C 66 % 86 % 25 % 1018,3 hPa 0,0 l/m 4,2 km/h (1 Bft) S 0,00 h 1,6 UV-I 7,3 C 14,2 C 4,7 km/h (1 Bft)
15.05.2011 14:00 14,1 C 15,9 C 10,3 C 15,2 C 14,9 C 1,2 C 63 % 86 % 32 % 1018,1 hPa 0,7 l/m 6,3 km/h (2 Bft) S 0,17 h 1,3 UV-I 7,1 C 14,9 C 7,5 km/h (2 Bft)
15.05.2011 15:00 15,2 C 15,9 C 10,3 C 19,0 C 19,0 C 3,9 C 64 % 86 % 91 % 1018,3 hPa 0,0 l/m 2,6 km/h (1 Bft) SW 0,92 h 2,1 UV-I 8,3 C 19,0 C 3,3 km/h (1 Bft)
15.05.2011 16:00 16,6 C 16,1 C 10,3 C 19,7 C 19,7 C 3,1 C 53 % 86 % 80 % 1017,9 hPa 0,0 l/m 5,3 km/h (1 Bft) SW 0,50 h 1,2 UV-I 7,1 C 19,7 C 6,3 km/h (2 Bft)
15.05.2011 17:00 13,1 C 16,7 C 10,3 C 12,3 C 10,6 C 0,0 C 68 % 86 % 1 % 1018,3 hPa 4,1 l/m 3,3 km/h (1 Bft) SW 0,00 h 0,2 UV-I 7,3 C 10,3 C 5,8 km/h (2 Bft)
15.05.2011 18:00 13,6 C 16,7 C 10,3 C 16,3 C 16,3 C 2,7 C 72 % 86 % 67 % 1018,6 hPa 0,0 l/m 0,3 km/h (0 Bft) N 0,33 h 0,2 UV-I 8,7 C 16,3 C 0,4 km/h (0 Bft)
15.05.2011 19:00 13,7 C 16,6 C 11,2 C 14,8 C 14,8 C 1,1 C 72 % 90 % 29 % 1018,7 hPa 0,0 l/m 0,3 km/h (0 Bft) N 0,42 h 0,0 UV-I 8,6 C 14,8 C 0,3 km/h (0 Bft)
15.05.2011 20:00 13,0 C 16,5 C 10,9 C 12,4 C 11,0 C 0,0 C 76 % 92 % 1 % 1019,1 hPa 0,0 l/m 1,2 km/h (1 Bft) SW 0,00 h 0,0 UV-I 8,8 C 11,0 C 1,6 km/h (1 Bft)
15.05.2011 21:00 12,2 C 16,3 C 10,1 C 11,1 C 9,0 C 0,0 C 74 % 91 % 0 % 1019,9 hPa 0,0 l/m 0,9 km/h (0 Bft) S 0,00 h 0,0 UV-I 7,8 C 9,0 C 0,7 km/h (0 Bft)
15.05.2011 22:00 10,8 C 16,3 C 9,1 C 9,6 C 7,1 C 0,0 C 79 % 92 % 0 % 1020,7 hPa 0,0 l/m 0,2 km/h (0 Bft) N 0,00 h 0,0 UV-I 7,4 C 7,1 C 0,1 km/h (0 Bft)
15.05.2011 23:00 9,8 C 16,3 C 8,2 C 8,6 C 6,1 C 0,0 C 81 % 93 % 0 % 1021,1 hPa 0,0 l/m 0,1 km/h (0 Bft) N 0,00 h 0,0 UV-I 6,6 C 6,1 C 0,2 km/h (0 Bft)
Min-Datum _ 10.05.11 09.05.11 10.05.11 10.05.11 10.05.11 09.05.11 09.05.11 09.05.11 09.05.11 14.05.11 - 09.05.11 - - 09.05.11 09.05.11 10.05.11 09.05.11
_ Min-Zeit 06:10 08:50 05:30 05:30 05:45 00:02 17:30 17:30 00:02 17:15 - 00:17 - - 00:02 18:35 05:45 00:12
Minimum _ 7,6 C 15,5 C 6,0 C 6,3 C 3,5 C 0,0 C 22 % 23 % 0 % 1010,9 hPa - 0,0 km/h (0 Bft) - - 0,0 UV-I 1,1 C 3,5 C 0,0 km/h (0 Bft)
Max-Datum _ 10.05.11 11.05.11 11.05.11 10.05.11 10.05.11 10.05.11 15.05.11 12.05.11 09.05.11 09.05.11 12.05.11 12.05.11 - 09.05.11 13.05.11 12.05.11 10.05.11 12.05.11
_ Max-Zeit 16:50 18:40 15:25 15:35 15:35 09:15 04:10 22:45 07:45 07:35 20:15 20:20 - 08:10 13:35 11:15 15:35 20:15
Maximum _ 27,1 C 19,8 C 31,3 C 32,2 C 32,2 C 10,2 C 87 % 94 % 100 % 1028,9 hPa 7,6 l/m 10,8 km/h
NO (2 Bft)
- 0,17 h 3,8 UV-I 14,6 C 32,2 C 25,7 km/h
NO (4 Bft)
Durchschnitt _ 16,5 C 17,4 C 14,2 C 17,5 C 16,4 C 1,5 C 62 % 73 % 34 % 1020,5 hPa #19,9 l/m 2,0 km/h (1 Bft) SW #37:40 h 1,2 UV-I 8,5 C 16,4 C 2,7 km/h (1 Bft)
2013 www.wetterstation-wechselburg.de